Time;durP1;ratioP1;P1;durP2;ratioP2;P2;SDS_P1;SDS_P2;PMS_P1;PMS_P2;Temp;Humidity;BMP_temperature;BMP_pressure;BME280_temperature;BME280_humidity;BME280_pressure;Samples;Min_cycle;Max_cycle;Signal;HPM_P1;HPM_P2
2020/12/22 00:00:34;;;;;;;30.48;14.55;;;;;;;2.94;100.00;94062.25;6184055;23;20016;-90
2020/12/22 00:03:01;;;;;;;;;;;;;;;3.09;100.00;94060.03;6184526;23;20036;-90
2020/12/22 00:05:27;;;;;;;37.72;13.50;;;;;;;3.02;100.00;94067.41;6184020;23;19971;-90
2020/12/22 00:07:53;;;;;;;;;;;;;;;3.02;100.00;94072.47;6184693;23;20021;-90
2020/12/22 00:10:19;;;;;;;23.25;11.07;;;;;;;3.05;100.00;94072.22;6184178;23;19916;-89
2020/12/22 00:12:45;;;;;;;;;;;;;;;3.06;100.00;94070.47;6184813;23;20021;-90
2020/12/22 00:15:12;;;;;;;21.20;9.52;;;;;;;2.62;100.00;94066.78;6184253;23;19920;-90
2020/12/22 00:17:42;;;;;;;;;;;;;;;2.54;100.00;94071.75;6184360;23;20025;-90
2020/12/22 00:20:09;;;;;;;24.55;10.38;;;;;;;2.47;100.00;94069.00;6184301;23;20314;-90
2020/12/22 00:22:36;;;;;;;30.13;9.82;;;;;;;2.42;100.00;94066.06;6184022;23;20028;-89
2020/12/22 00:25:02;;;;;;;;;;;;;;;2.65;100.00;94078.41;6184668;23;20025;-90
2020/12/22 00:27:32;;;;;;;34.10;8.95;;;;;;;2.67;100.00;94073.97;6184257;23;19923;-90
2020/12/22 00:29:59;;;;;;;20.08;9.95;;;;;;;2.67;100.00;94079.88;6184113;23;20028;-89
2020/12/22 00:32:25;;;;;;;19.95;9.25;;;;;;;2.44;100.00;94048.97;6183752;23;20068;-89
2020/12/22 00:34:51;;;;;;;;;;;;;;;2.47;100.00;94084.22;6184434;23;20021;-89
2020/12/22 00:37:18;;;;;;;14.23;7.60;;;;;;;2.36;100.00;94082.63;6183932;23;19916;-89
2020/12/22 00:39:45;;;;;;;16.80;7.30;;;;;;;2.22;100.00;94078.78;6183946;23;20021;-89
2020/12/22 00:42:11;;;;;;;;;;;;;;;2.46;100.00;94079.25;6184280;23;20072;-89
2020/12/22 00:44:37;;;;;;;10.93;6.18;;;;;;;2.60;100.00;94083.09;6183461;23;20359;-89
2020/12/22 00:47:03;;;;;;;;;;;;;;;2.71;100.00;94084.66;6184251;23;20017;-89
2020/12/22 00:49:29;;;;;;;16.77;7.10;;;;;;;2.67;100.00;94081.59;6183604;23;19920;-89
2020/12/22 00:51:57;;;;;;;;;;;;;;;2.66;100.00;94082.53;6183808;23;20032;-90
2020/12/22 00:54:25;;;;;;;18.17;7.10;;;;;;;2.56;100.00;94082.56;6183829;23;20210;-88
2020/12/22 00:56:51;;;;;;;18.10;7.72;;;;;;;2.62;100.00;94078.66;6183768;23;20071;-89
2020/12/22 00:59:17;;;;;;;;;;;;;;;2.63;100.00;94072.66;6184070;23;20021;-88
2020/12/22 01:01:43;;;;;;;10.80;7.07;;;;;;;2.58;100.00;94070.53;6183529;23;19920;-89
2020/12/22 01:04:09;;;;;;;;;;;;;;;2.46;100.00;94077.50;6184404;23;20047;-89
2020/12/22 01:06:37;;;;;;;11.00;7.00;;;;;;;2.43;100.00;94075.25;6183506;23;19923;-89
2020/12/22 01:09:03;;;;;;;19.85;5.57;;;;;;;2.48;100.00;94062.16;6183817;23;20021;-89
2020/12/22 01:11:34;;;;;;;13.75;8.38;;;;;;;2.61;100.00;94074.53;6183625;23;20345;-89
2020/12/22 01:14:00;;;;;;;11.98;6.47;;;;;;;2.71;100.00;94080.38;6183837;23;20032;-89
2020/12/22 01:16:26;;;;;;;8.95;6.20;;;;;;;2.81;100.00;94067.66;6183956;23;20028;-89
2020/12/22 01:18:53;;;;;;;13.68;8.48;;;;;;;2.83;100.00;94070.06;6185408;23;20370;-90
2020/12/22 01:21:19;;;;;;;;;;;;;;;2.85;100.00;94076.59;6185415;23;20025;-89
2020/12/22 01:23:45;;;;;;;17.40;7.55;;;;;;;2.86;100.00;94079.94;6185167;23;19920;-89
2020/12/22 01:26:11;;;;;;;;;;;;;;;2.88;100.00;94073.75;6185677;23;20021;-89
2020/12/22 01:28:39;;;;;;;14.18;7.05;;;;;;;2.77;100.00;94076.47;6185123;23;19916;-90
2020/12/22 01:31:05;;;;;;;13.48;7.15;;;;;;;2.66;100.00;94062.25;6185530;23;20032;-89
2020/12/22 01:33:31;;;;;;;;;;;;;;;2.77;100.00;94066.31;6185805;23;20470;-89
2020/12/22 01:35:57;;;;;;;10.98;5.85;;;;;;;2.83;100.00;94067.50;6185286;23;19967;-89
2020/12/22 01:38:23;;;;;;;;;;;;;;;2.92;100.00;94070.00;6185446;23;20021;-89
2020/12/22 01:40:50;;;;;;;15.68;6.40;;;;;;;2.94;100.00;94064.78;6185769;23;19927;-89
2020/12/22 01:43:16;;;;;;;14.75;7.47;;;;;;;2.83;100.00;94047.22;6185366;23;20094;-89
2020/12/22 01:45:44;;;;;;;16.35;6.60;;;;;;;2.94;100.00;94065.59;6185422;23;20017;-89
2020/12/22 01:48:11;;;;;;;18.10;6.65;;;;;;;2.92;100.00;94051.47;6184893;23;20021;-89
2020/12/22 01:50:37;;;;;;;12.50;7.43;;;;;;;2.61;100.00;94060.13;6185271;23;20473;-89
2020/12/22 01:53:04;;;;;;;16.73;7.78;;;;;;;2.50;100.00;94063.63;6185296;23;20028;-90
2020/12/22 01:55:30;;;;;;;;;;;;;;;2.32;100.00;94057.69;6185650;23;20021;-89
2020/12/22 01:57:56;;;;;;;16.65;7.72;;;;;;;2.43;100.00;94057.50;6184701;23;19927;-89
2020/12/22 02:00:22;;;;;;;;;;;;;;;2.56;100.00;94062.28;6185644;23;20017;-89
2020/12/22 02:02:49;;;;;;;17.50;9.55;;;;;;;2.64;100.00;94061.59;6184445;23;19923;-89
2020/12/22 02:05:16;;;;;;;14.20;6.32;;;;;;;2.40;100.00;94071.28;6184626;23;20458;-89
2020/12/22 02:07:42;;;;;;;;;;;;;;;2.57;100.00;94063.06;6185846;23;20017;-89
2020/12/22 02:10:08;;;;;;;13.82;6.53;;;;;;;2.64;100.00;94053.97;6185165;23;19916;-89
2020/12/22 02:12:38;;;;;;;;;;;;;;;2.61;100.00;94060.13;6185117;23;20020;-89
2020/12/22 02:15:04;;;;;;;18.45;6.90;;;;;;;2.51;100.00;94055.06;6185228;23;19971;-90
2020/12/22 02:17:30;;;;;;;;;;;;;;;2.52;100.00;94055.88;6185965;23;20021;-89
2020/12/22 02:19:58;;;;;;;10.73;6.18;;;;;;;2.60;100.00;94062.81;6185424;23;19995;-89
2020/12/22 02:22:25;;;;;;;20.20;8.48;;;;;;;2.71;100.00;94060.09;6184976;23;20458;-89
2020/12/22 02:24:51;;;;;;;16.60;7.13;;;;;;;2.77;100.00;94061.25;6184922;23;20048;-88
2020/12/22 02:27:17;;;;;;;;;;;;;;;2.74;100.00;94059.00;6185476;23;20021;-88
2020/12/22 02:29:43;;;;;;;9.45;5.93;;;;;;;2.22;100.00;94055.19;6184427;23;20253;-89
2020/12/22 02:32:09;;;;;;;;;;;;;;;2.34;100.00;94059.16;6185917;23;20017;-89
2020/12/22 02:34:36;;;;;;;16.48;8.27;;;;;;;2.32;100.00;94055.16;6184928;23;20288;-88
2020/12/22 02:37:02;;;;;;;;;;;;;;;2.34;100.00;94053.25;6185526;23;20017;-89
2020/12/22 02:39:29;;;;;;;17.23;6.53;;;;;;;1.85;100.00;94052.41;6185078;23;19916;-88
2020/12/22 02:41:55;;;;;;;15.10;6.78;;;;;;;2.01;100.00;94048.53;6184843;23;20052;-88
2020/12/22 02:44:21;;;;;;;;;;;;;;;2.13;100.00;94059.34;6186069;23;20021;-90
2020/12/22 02:46:47;;;;;;;11.32;5.80;;;;;;;1.99;100.00;94053.75;6184706;23;20360;-90
2020/12/22 02:49:13;;;;;;;;;;;;;;;1.77;100.00;94059.91;6185583;23;20017;-90
2020/12/22 02:51:40;;;;;;;11.73;6.68;;;;;;;1.60;100.00;94059.66;6184745;23;19916;-89
2020/12/22 02:54:06;;;;;;;;;;;;;;;1.73;100.00;94053.50;6185160;23;20520;-89
2020/12/22 02:56:33;;;;;;;17.33;6.20;;;;;;;1.71;100.00;94043.50;6185073;23;19924;-89
2020/12/22 02:58:59;;;;;;;13.07;5.78;;;;;;;1.85;100.00;94047.34;6185065;23;20021;-88
2020/12/22 03:01:25;;;;;;;;;;;;;;;2.01;100.00;94043.47;6185430;23;20021;-89
2020/12/22 03:03:51;;;;;;;14.07;6.88;;;;;;;1.78;100.00;94043.75;6184853;23;19920;-89
2020/12/22 03:06:18;;;;;;;;;;;;;;;1.57;100.00;94036.31;6185368;23;20016;-89
2020/12/22 03:08:44;;;;;;;13.15;5.60;;;;;;;1.46;100.00;94040.59;6184459;23;20934;-90
2020/12/22 03:11:10;;;;;;;;;;;;;;;1.48;100.00;94037.91;6185381;23;20017;-89
2020/12/22 03:13:37;;;;;;;11.20;5.22;;;;;;;1.36;100.00;94017.00;6184462;23;19915;-89
2020/12/22 03:16:03;;;;;;;16.67;6.60;;;;;;;1.51;100.00;94012.31;6184955;23;20021;-89
2020/12/22 03:18:29;;;;;;;;;;;;;;;1.60;100.00;94025.91;6185202;23;20021;-89
2020/12/22 03:20:56;;;;;;;15.38;6.30;;;;;;;1.69;100.00;94025.13;6184298;23;19923;-89
2020/12/22 03:23:22;;;;;;;;;;;;;;;1.93;100.00;94023.06;6184941;23;20028;-90
2020/12/22 03:25:48;;;;;;;18.08;6.22;;;;;;;2.07;100.00;94022.66;6183619;23;19916;-89
2020/12/22 03:28:14;;;;;;;18.20;8.10;;;;;;;2.24;100.00;94017.81;6183452;23;20465;-88
2020/12/22 03:30:41;;;;;;;;;;;;;;;2.27;100.00;94020.84;6184718;23;20334;-89
2020/12/22 03:33:08;;;;;;;13.55;6.28;;;;;;;2.26;100.00;94021.81;6184073;23;19916;-88
2020/12/22 03:35:34;;;;;;;;;;;;;;;2.40;100.00;94022.28;6184718;23;20071;-89
2020/12/22 03:38:00;;;;;;;24.52;9.93;;;;;;;2.31;100.00;94018.84;6184420;23;19928;-89
2020/12/22 03:40:26;;;;;;;;;;;;;;;2.31;100.00;94013.00;6184770;23;20021;-89
2020/12/22 03:42:53;;;;;;;15.32;6.05;;;;;;;2.14;100.00;94017.84;6184153;23;19916;-89
2020/12/22 03:45:19;;;;;;;19.13;6.38;;;;;;;1.94;100.00;94015.34;6184458;23;20017;-89
2020/12/22 03:47:46;;;;;;;;;;;;;;;1.92;100.00;94012.16;6184814;23;20023;-90
2020/12/22 03:50:12;;;;;;;12.18;5.47;;;;;;;1.97;100.00;94012.53;6184162;23;20292;-89
2020/12/22 03:52:38;;;;;;;;;;;;;;;2.05;100.00;94006.78;6184550;23;20021;-89
2020/12/22 03:55:05;;;;;;;21.15;10.27;;;;;;;2.14;100.00;94005.94;6184247;23;19924;-89
2020/12/22 03:57:31;;;;;;;20.88;9.00;;;;;;;2.28;100.00;94009.00;6183527;23;20021;-90
2020/12/22 03:59:57;;;;;;;19.10;6.32;;;;;;;2.35;100.00;94006.69;6185655;23;20028;-88
2020/12/22 04:02:23;;;;;;;;;;;;;;;2.38;100.00;94009.75;6186391;23;20025;-89
2020/12/22 04:04:51;;;;;;;13.60;6.13;;;;;;;2.37;100.00;94009.91;6184237;23;19916;-89
2020/12/22 04:07:17;;;;;;;15.18;6.22;;;;;;;2.37;100.00;94003.06;6184129;23;20017;-89
2020/12/22 04:09:43;;;;;;;;;;;;;;;2.42;100.00;94009.47;6184065;23;20025;-89
2020/12/22 04:12:09;;;;;;;17.13;7.70;;;;;;;2.42;100.00;94012.81;6183462;23;19920;-88
2020/12/22 04:14:35;;;;;;;;;;;;;;;2.43;100.00;94013.59;6184102;23;20017;-89
2020/12/22 04:17:02;;;;;;;14.65;6.75;;;;;;;2.40;100.00;94007.88;6183988;23;20326;-89
2020/12/22 04:19:29;;;;;;;;;;;;;;;2.43;100.00;94021.19;6184375;23;20066;-89
2020/12/22 04:21:57;;;;;;;18.15;8.00;;;;;;;2.40;100.00;94023.09;6183941;23;19920;-88
2020/12/22 04:24:23;;;;;;;21.83;8.23;;;;;;;2.28;100.00;94026.75;6184543;23;20021;-89
2020/12/22 04:26:49;;;;;;;;;;;;;;;2.24;100.00;94033.00;6184646;23;20021;-88
2020/12/22 04:29:16;;;;;;;15.18;6.82;;;;;;;2.22;100.00;94022.22;6184081;23;19923;-89
2020/12/22 04:31:42;;;;;;;;;;;;;;;2.38;100.00;94024.97;6185271;23;20032;-89
2020/12/22 04:34:08;;;;;;;13.02;6.15;;;;;;;2.40;100.00;94020.56;6186385;23;19917;-88
2020/12/22 04:36:34;;;;;;;;;;;;;;;2.49;100.00;94024.00;6186655;23;20386;-87
2020/12/22 04:39:01;;;;;;;26.08;10.18;;;;;;;2.51;100.00;94019.56;6185561;23;19920;-89
2020/12/22 04:41:29;;;;;;;22.60;7.80;;;;;;;2.43;100.00;94022.00;6183918;23;20017;-89
2020/12/22 04:43:55;;;;;;;12.60;7.50;;;;;;;2.52;100.00;94020.38;6183752;23;20028;-89
2020/12/22 04:46:23;;;;;;;;;;;;;;;2.57;100.00;94023.28;6185015;23;20066;-89
2020/12/22 04:48:54;;;;;;;18.08;5.85;;;;;;;2.55;100.00;94022.66;6184006;23;19923;-89
2020/12/22 04:51:21;;;;;;;19.33;7.20;;;;;;;2.56;100.00;94021.69;6183841;23;20072;-89
2020/12/22 04:53:47;;;;;;;19.75;7.68;;;;;;;2.57;100.00;94023.28;6185626;23;20673;-89
2020/12/22 04:56:15;;;;;;;13.70;8.52;;;;;;;2.61;100.00;94027.16;6186047;23;20021;-89
2020/12/22 04:58:41;;;;;;;15.50;8.02;;;;;;;2.62;100.00;94036.34;6185698;23;20017;-88
2020/12/22 05:01:08;;;;;;;13.95;5.57;;;;;;;2.59;100.00;94023.16;6185290;23;20017;-88
2020/12/22 05:03:34;;;;;;;15.50;7.78;;;;;;;2.57;100.00;94022.47;6183723;23;20089;-89
2020/12/22 05:06:00;;;;;;;14.80;8.05;;;;;;;2.59;100.00;94018.09;6185348;23;20025;-89
2020/12/22 05:08:26;;;;;;;;;;;;;;;2.57;100.00;94027.56;6185960;23;20028;-89
2020/12/22 05:10:53;;;;;;;27.98;7.50;;;;;;;2.50;100.00;94029.88;6185776;23;20253;-88
2020/12/22 05:13:22;;;;;;;20.88;8.30;;;;;;;2.44;100.00;94027.91;6185903;23;20382;-89
2020/12/22 05:15:50;;;;;;;17.70;9.45;;;;;;;2.53;100.00;94037.19;6186081;23;20095;-90
2020/12/22 05:18:19;;;;;;;13.93;7.10;;;;;;;2.49;100.00;94036.66;6185659;23;20017;-89
2020/12/22 05:20:47;;;;;;;25.67;8.57;;;;;;;2.44;100.00;94033.75;6185492;23;20021;-88
2020/12/22 05:23:15;;;;;;;13.48;7.68;;;;;;;2.42;100.00;94033.09;6185857;23;20024;-89
2020/12/22 05:25:43;;;;;;;19.75;7.47;;;;;;;2.39;100.00;94034.19;6185560;23;20017;-90
2020/12/22 05:28:09;;;;;;;21.88;8.50;;;;;;;2.40;100.00;94040.84;6185895;23;20021;-88
2020/12/22 05:30:39;;;;;;;13.70;6.25;;;;;;;2.37;100.00;94032.72;6185453;23;20338;-89
2020/12/22 05:33:05;;;;;;;16.15;5.80;;;;;;;2.35;100.00;94043.00;6185663;23;20022;-89
2020/12/22 05:35:35;;;;;;;;;;;;;;;2.34;100.00;94040.59;6186140;23;20021;-89
2020/12/22 05:38:03;;;;;;;15.15;7.65;;;;;;;2.34;100.00;94045.66;6185361;23;20261;-91
2020/12/22 05:40:29;;;;;;;11.10;6.50;;;;;;;2.40;100.00;94045.91;6184934;23;20021;-89
2020/12/22 05:42:57;;;;;;;17.23;7.22;;;;;;;2.45;100.00;94050.56;6185436;23;20059;-89
2020/12/22 05:45:23;;;;;;;16.17;7.85;;;;;;;2.49;100.00;94043.47;6185457;23;20028;-89
2020/12/22 05:47:52;;;;;;;;;;;;;;;2.55;100.00;94048.00;6185739;23;20025;-89
2020/12/22 05:50:20;;;;;;;16.50;8.55;;;;;;;2.43;100.00;94047.38;6185498;23;19916;-89
2020/12/22 05:52:46;;;;;;;15.65;6.25;;;;;;;2.32;100.00;94028.03;6185515;23;20071;-89
2020/12/22 05:55:13;;;;;;;20.13;7.10;;;;;;;2.47;100.00;94045.34;6185352;23;20021;-89
2020/12/22 05:57:39;;;;;;;;;;;;;;;2.47;100.00;94050.44;6185777;23;20025;-89
2020/12/22 06:00:14;;;;;;;16.35;8.63;;;;;;;2.39;100.00;94051.91;6185062;23;19916;-88
2020/12/22 06:02:41;;;;;;;14.87;5.00;;;;;;;2.32;100.00;94060.22;6185459;23;20021;-88
2020/12/22 06:05:08;;;;;;;23.15;8.30;;;;;;;2.34;100.00;94049.00;6185494;23;20025;-89
2020/12/22 06:07:36;;;;;;;16.95;7.68;;;;;;;2.37;100.00;94045.38;6185280;23;20021;-89
2020/12/22 06:10:02;;;;;;;12.73;7.30;;;;;;;2.36;100.00;94043.81;6185268;23;20025;-89
2020/12/22 06:12:38;;;;;;;13.00;6.40;;;;;;;2.32;100.00;94039.94;6184818;23;20075;-89
2020/12/22 06:15:05;;;;;;;14.90;6.88;;;;;;;2.35;100.00;94042.19;6185264;23;20100;-88
2020/12/22 06:17:36;;;;;;;14.43;6.85;;;;;;;2.32;100.00;94034.88;6184922;23;20017;-90
2020/12/22 06:20:03;;;;;;;17.00;7.97;;;;;;;2.27;100.00;94031.00;6184677;23;20323;-89
2020/12/22 06:22:30;;;;;;;11.07;6.30;;;;;;;2.28;100.00;94031.81;6185031;23;20124;-89
2020/12/22 06:24:56;;;;;;;17.13;8.10;;;;;;;2.20;100.00;94036.75;6185194;23;20381;-90
2020/12/22 06:27:32;;;;;;;15.32;5.57;;;;;;;2.13;100.00;94034.78;6184942;23;20315;-88
2020/12/22 06:29:58;;;;;;;15.70;6.05;;;;;;;2.07;100.00;94027.72;6184817;23;20141;-89
2020/12/22 06:32:26;;;;;;;;;;;;;;;2.02;100.00;94029.84;6185416;23;20017;-89
2020/12/22 06:34:53;;;;;;;16.25;8.32;;;;;;;1.99;100.00;94030.16;6184514;23;19939;-88
2020/12/22 06:37:24;;;;;;;14.18;6.28;;;;;;;1.98;100.00;94031.06;6184537;23;20393;-90
2020/12/22 06:39:52;;;;;;;19.17;7.22;;;;;;;2.07;100.00;94032.78;6183863;23;20067;-90
2020/12/22 06:42:43;;;;;;;12.43;6.05;;;;;;;2.19;100.00;94020.75;6183920;23;20136;-88
2020/12/22 06:45:27;;;;;;;12.50;7.47;;;;;;;2.24;100.00;94025.41;6171843;23;20021;-89
2020/12/22 06:47:53;;;;;;;17.60;7.80;;;;;;;2.25;100.00;94024.47;6184084;23;20474;-89
2020/12/22 06:50:50;;;;;;;12.68;6.65;;;;;;;2.35;100.00;94020.16;6184110;23;20446;-89
2020/12/22 06:53:35;;;;;;;15.45;7.05;;;;;;;2.42;100.00;94022.16;6092586;23;20037;-90
2020/12/22 06:56:03;;;;;;;18.98;8.02;;;;;;;2.33;100.00;94011.09;6174233;23;20017;-89
2020/12/22 06:58:40;;;;;;;17.75;6.57;;;;;;;2.29;100.00;94010.59;6183810;23;20021;-90
2020/12/22 07:01:28;;;;;;;15.35;5.88;;;;;;;2.36;100.00;94020.97;6184068;23;20040;-91
2020/12/22 07:04:10;;;;;;;12.57;5.53;;;;;;;2.38;100.00;94019.91;6184446;23;20029;-89
2020/12/22 07:06:44;;;;;;;19.02;6.40;;;;;;;2.43;100.00;94004.25;6183976;23;20068;-89
2020/12/22 07:09:14;;;;;;;15.13;8.20;;;;;;;2.51;100.00;94021.31;6184448;23;20500;-89
2020/12/22 07:11:41;;;;;;;12.95;8.07;;;;;;;2.54;100.00;94009.16;6184625;23;20028;-89
2020/12/22 07:14:08;;;;;;;14.02;7.20;;;;;;;2.53;100.00;94002.50;6183787;23;20023;-89
2020/12/22 07:16:55;;;;;;;19.88;9.65;;;;;;;2.63;100.00;94009.22;6184178;23;20017;-89
2020/12/22 07:19:28;;;;;;;16.35;7.57;;;;;;;2.66;100.00;94012.31;6184221;23;20021;-90
2020/12/22 07:21:56;;;;;;;14.13;7.18;;;;;;;2.71;100.00;93999.19;6184293;23;20053;-88
2020/12/22 07:24:24;;;;;;;11.07;7.32;;;;;;;2.74;100.00;94003.19;6184486;23;20028;-88
2020/12/22 07:26:52;;;;;;;5.15;3.17;;;;;;;2.85;100.00;94005.53;6184890;23;20021;-89
2020/12/22 07:29:19;;;;;;;7.57;4.30;;;;;;;2.84;99.52;94005.66;6183658;23;20484;-88
2020/12/22 07:31:46;;;;;;;5.35;3.65;;;;;;;2.94;99.26;94012.31;6184394;23;20558;-89
2020/12/22 07:34:12;;;;;;;7.88;3.97;;;;;;;3.00;99.94;94012.69;6183708;23;20336;-89
2020/12/22 07:36:39;;;;;;;5.60;4.05;;;;;;;3.02;99.22;94009.03;6183776;23;20025;-88
2020/12/22 07:39:16;;;;;;;7.13;4.60;;;;;;;3.11;98.96;94009.94;6184465;23;20017;-89
2020/12/22 07:41:43;;;;;;;28.80;11.38;;;;;;;3.17;99.22;94016.16;6184089;23;20414;-89
2020/12/22 07:44:13;;;;;;;12.98;6.53;;;;;;;3.25;98.29;94007.81;6184788;23;20021;-89
2020/12/22 07:46:40;;;;;;;23.48;6.10;;;;;;;3.34;98.12;94004.44;6184739;23;20040;-89
2020/12/22 07:49:08;;;;;;;4.47;2.42;;;;;;;3.38;96.79;94008.25;6184280;23;20028;-89
2020/12/22 07:51:36;;;;;;;9.43;3.47;;;;;;;3.40;97.07;94020.81;6184153;23;20024;-90
2020/12/22 07:54:06;;;;;;;6.63;4.95;;;;;;;3.47;96.77;94021.81;6184156;23;20023;-88
2020/12/22 07:56:33;;;;;;;12.93;5.57;;;;;;;3.53;96.75;94011.09;6187126;23;20021;-89
2020/12/22 07:59:05;;;;;;;9.00;4.72;;;;;;;3.67;96.82;94014.88;6186281;23;20083;-89
2020/12/22 08:01:37;;;;;;;8.45;5.10;;;;;;;3.67;96.92;94006.44;6184239;23;20021;-90
2020/12/22 08:04:17;;;;;;;11.75;7.15;;;;;;;3.69;96.82;94007.88;6184498;23;20020;-89
2020/12/22 08:06:53;;;;;;;8.27;4.38;;;;;;;3.71;95.36;94015.38;6184723;23;20389;-89
2020/12/22 08:09:22;;;;;;;8.60;5.07;;;;;;;3.73;96.36;94013.47;6185676;23;20068;-89
2020/12/22 08:11:51;;;;;;;113.28;53.15;;;;;;;3.39;96.90;94014.16;6185799;23;20025;-89
2020/12/22 08:14:18;;;;;;;12.02;5.22;;;;;;;3.33;96.62;94018.06;6184961;23;20021;-89
2020/12/22 08:16:46;;;;;;;22.85;9.48;;;;;;;3.29;97.17;94016.75;6184429;23;20028;-91
2020/12/22 08:19:12;;;;;;;6.28;4.43;;;;;;;2.87;100.00;94028.25;6185727;23;20021;-89
2020/12/22 08:21:39;;;;;;;;;;;;;;;3.00;99.39;94018.53;6185346;23;20095;-90
2020/12/22 08:24:05;;;;;;;11.65;6.35;;;;;;;3.20;100.00;94011.59;6185071;23;19916;-89
2020/12/22 08:29:53;;;;;;;11.18;6.40;;;;;;;3.57;98.70;94012.38;6187677;23;20016;-92
2020/12/22 08:32:25;;;;;;;11.43;6.40;;;;;;;3.77;97.85;94014.78;6187128;23;20025;-90
2020/12/22 08:34:53;;;;;;;9.05;5.63;;;;;;;3.66;97.48;94000.53;6187752;23;20100;-91
2020/12/22 08:37:24;;;;;;;13.35;6.60;;;;;;;3.95;97.75;94003.78;6187607;23;20449;-90
2020/12/22 08:39:51;;;;;;;12.85;6.05;;;;;;;4.05;95.86;94001.13;6188919;23;20021;-88
2020/12/22 08:42:19;;;;;;;14.27;5.95;;;;;;;3.83;95.10;93996.41;6187917;23;20350;-90
2020/12/22 08:44:49;;;;;;;12.55;5.13;;;;;;;3.83;94.66;93983.69;6187628;23;20025;-89
2020/12/22 08:47:16;;;;;;;12.13;6.25;;;;;;;4.11;94.04;93998.78;6187659;23;20026;-89
2020/12/22 08:50:09;;;;;;;8.20;5.53;;;;;;;3.98;93.46;93998.41;6187784;23;20021;-89
2020/12/22 08:52:36;;;;;;;7.95;5.20;;;;;;;3.90;95.62;94006.78;6187035;23;20017;-90
2020/12/22 08:55:04;;;;;;;9.77;6.15;;;;;;;3.87;94.96;94007.88;6188192;23;20017;-89
2020/12/22 08:57:31;;;;;;;12.63;6.47;;;;;;;3.35;97.17;94008.56;6186595;23;20017;-93
2020/12/22 08:59:57;;;;;;;10.75;6.43;;;;;;;3.15;98.64;94011.22;6187104;23;20071;-90
2020/12/22 09:02:26;;;;;;;;;;;;;;;3.13;98.55;94002.97;6188087;23;20017;-90
2020/12/22 09:04:52;;;;;;;21.95;6.93;;;;;;;3.21;98.08;94003.03;6187934;23;19990;-89
2020/12/22 09:07:18;;;;;;;15.32;7.43;;;;;;;3.22;99.07;93996.22;6188432;23;20024;-90
2020/12/22 09:12:48;;;;;;;12.93;7.13;;;;;;;3.68;96.62;93995.31;6187758;23;20257;-89
2020/12/22 09:15:15;;;;;;;18.17;8.52;;;;;;;3.78;96.26;93990.16;6187242;23;20024;-90
2020/12/22 09:17:41;;;;;;;;;;;;;;;3.96;95.42;93993.47;6185715;23;20027;-91
2020/12/22 09:20:07;;;;;;;15.48;7.95;;;;;;;4.03;96.36;93991.09;6184850;23;19920;-91
2020/12/22 09:22:36;;;;;;;19.60;7.88;;;;;;;3.89;95.58;93995.00;6184819;23;20390;-89
2020/12/22 09:25:05;;;;;;;23.40;8.55;;;;;;;3.95;96.12;93993.59;6184845;23;20092;-90
2020/12/22 09:27:32;;;;;;;14.32;7.32;;;;;;;3.81;96.02;93995.75;6187121;23;20028;-91
2020/12/22 09:30:01;;;;;;;15.18;7.43;;;;;;;3.80;95.60;93988.28;6185573;23;20064;-91
2020/12/22 09:32:28;;;;;;;16.75;8.82;;;;;;;3.93;96.59;93985.34;6184846;23;20021;-92
2020/12/22 09:34:54;;;;;;;15.02;8.88;;;;;;;4.10;95.85;93979.41;6186067;23;20017;-91
2020/12/22 09:37:21;;;;;;;;;;;;;;;4.22;93.85;93979.94;6185296;23;20338;-90
2020/12/22 09:39:49;;;;;;;22.50;9.85;;;;;;;4.33;95.19;93981.44;6184850;23;19939;-91
2020/12/22 09:42:16;;;;;;;26.50;12.20;;;;;;;4.39;95.66;93975.72;6184627;23;20032;-91
2020/12/22 09:44:42;;;;;;;;;;;;;;;4.49;95.57;93979.91;6185268;23;20025;-91
2020/12/22 09:47:09;;;;;;;16.42;8.13;;;;;;;4.37;95.62;93964.91;6184778;23;19920;-90
2020/12/22 09:49:35;;;;;;;13.32;6.68;;;;;;;4.50;96.27;93972.09;6184804;23;20017;-91
2020/12/22 09:52:01;;;;;;;;;;;;;;;4.50;95.70;93969.56;6185437;23;20029;-90
2020/12/22 09:54:27;;;;;;;11.70;6.88;;;;;;;4.54;95.98;93970.06;6184389;23;19916;-91
2020/12/22 09:56:53;;;;;;;;;;;;;;;4.64;95.26;93973.28;6184742;23;20048;-91
2020/12/22 09:59:20;;;;;;;9.63;4.38;;;;;;;4.57;94.83;93966.44;6184535;23;19920;-90
2020/12/22 10:01:48;;;;;;;12.82;6.53;;;;;;;4.66;95.70;93956.13;6184437;23;20028;-91
2020/12/22 10:04:15;;;;;;;19.45;8.55;;;;;;;4.80;95.01;93954.72;6184462;23;20028;-90
2020/12/22 10:06:42;;;;;;;13.68;5.93;;;;;;;4.84;94.20;93959.50;6183993;23;20025;-90
2020/12/22 10:09:08;;;;;;;15.35;8.90;;;;;;;4.92;93.51;93955.22;6184062;23;20350;-91
2020/12/22 10:11:35;;;;;;;;;;;;;;;5.03;93.00;93958.41;6184887;23;20099;-90
2020/12/22 10:14:02;;;;;;;10.88;6.22;;;;;;;5.00;93.52;93951.09;6184095;23;19916;-91
2020/12/22 10:16:29;;;;;;;16.92;6.28;;;;;;;4.73;93.20;93919.88;6184448;23;20104;-91
2020/12/22 10:18:55;;;;;;;24.20;11.05;;;;;;;4.93;93.42;93933.09;6183866;23;20021;-91
2020/12/22 10:21:22;;;;;;;;;;;;;;;5.05;93.38;93946.34;6184571;23;20080;-91
2020/12/22 10:23:50;;;;;;;35.78;14.55;;;;;;;5.02;94.09;93931.38;6184145;23;20247;-91
2020/12/22 10:26:17;;;;;;;15.32;8.32;;;;;;;5.25;93.57;93944.28;6184250;23;20017;-91
2020/12/22 10:28:45;;;;;;;18.90;8.68;;;;;;;5.33;93.16;93930.78;6183814;23;20462;-90
2020/12/22 10:31:12;;;;;;;31.10;13.57;;;;;;;5.37;91.92;93942.22;6184102;23;20017;-90
2020/12/22 10:33:38;;;;;;;18.75;8.35;;;;;;;5.39;91.94;93932.69;6184523;23;20342;-91
2020/12/22 10:36:04;;;;;;;;;;;;;;;5.48;92.34;93933.47;6185065;23;20462;-91
2020/12/22 10:38:32;;;;;;;21.73;9.32;;;;;;;5.57;92.10;93936.81;6184594;23;19923;-91
2020/12/22 10:40:58;;;;;;;14.60;7.07;;;;;;;5.69;91.98;93940.63;6183488;23;20025;-91
2020/12/22 10:43:24;;;;;;;15.07;7.40;;;;;;;5.59;91.63;93927.25;6183884;23;20342;-93
2020/12/22 10:45:50;;;;;;;;;;;;;;;5.70;91.53;93926.13;6184179;23;20021;-91
2020/12/22 10:48:17;;;;;;;16.65;7.40;;;;;;;5.68;90.80;93928.03;6183965;23;19927;-91
2020/12/22 10:50:43;;;;;;;13.63;7.13;;;;;;;5.66;91.00;93927.41;6183389;23;20028;-92
2020/12/22 10:53:09;;;;;;;16.63;6.28;;;;;;;5.53;90.58;93910.03;6184020;23;20021;-91
2020/12/22 10:55:36;;;;;;;13.57;6.22;;;;;;;5.76;90.72;93933.13;6184136;23;20024;-90
2020/12/22 10:58:03;;;;;;;21.80;6.82;;;;;;;5.73;90.43;93931.69;6184072;23;20342;-90
2020/12/22 11:00:29;;;;;;;18.05;7.80;;;;;;;5.77;90.59;93921.16;6184288;23;20017;-91
2020/12/22 11:02:59;;;;;;;;;;;;;;;5.75;90.44;93919.56;6184813;23;20047;-90
2020/12/22 11:08:15;;;;;;;13.00;5.93;;;;;;;5.73;90.38;93897.75;6168109;23;20031;-91
2020/12/22 11:10:42;;;;;;;;;;;;;;;5.54;90.63;93894.59;6186206;23;20027;-90
2020/12/22 11:13:08;;;;;;;17.10;5.65;;;;;;;5.64;91.25;93896.19;6185509;23;19920;-88
2020/12/22 11:15:34;;;;;;;;;;;;;;;5.64;91.63;93888.53;6184373;23;20017;-88
2020/12/22 11:18:00;;;;;;;12.73;5.85;;;;;;;5.67;90.88;93883.09;6183382;23;19924;-89
2020/12/22 11:20:26;;;;;;;;;;;;;;;5.75;91.40;93894.09;6183871;23;20477;-88
2020/12/22 11:22:52;;;;;;;14.98;7.18;;;;;;;5.73;90.33;93896.00;6183405;23;19963;-89
2020/12/22 11:25:19;;;;;;;14.70;5.93;;;;;;;5.76;90.69;93897.44;6183366;23;20021;-89
2020/12/22 11:27:46;;;;;;;17.25;8.10;;;;;;;5.79;90.91;93894.53;6183689;23;20109;-88
2020/12/22 11:30:14;;;;;;;12.85;6.63;;;;;;;5.79;90.58;93893.78;6183012;23;20025;-89
2020/12/22 11:32:40;;;;;;;11.43;4.88;;;;;;;5.82;89.85;93885.78;6183510;23;20068;-88
2020/12/22 11:35:08;;;;;;;14.93;7.70;;;;;;;5.72;89.91;93874.03;6183853;23;20028;-89
2020/12/22 11:37:35;;;;;;;14.60;7.57;;;;;;;5.72;90.43;93875.78;6183356;23;20075;-89
2020/12/22 11:40:01;;;;;;;12.95;6.57;;;;;;;5.74;90.70;93878.97;6183433;23;20083;-89
2020/12/22 11:42:27;;;;;;;19.27;8.57;;;;;;;5.74;90.82;93869.56;6183067;23;20497;-89
2020/12/22 11:44:55;;;;;;;22.77;8.20;;;;;;;5.73;91.06;93862.06;6182888;23;20021;-89
2020/12/22 11:47:21;;;;;;;10.48;6.20;;;;;;;5.74;89.46;93861.13;6183385;23;20021;-89
2020/12/22 11:49:48;;;;;;;13.02;7.28;;;;;;;5.74;90.64;93859.34;6183514;23;20017;-88
2020/12/22 11:52:14;;;;;;;;;;;;;;;5.81;91.24;93864.59;6184564;23;20028;-91
2020/12/22 11:54:40;;;;;;;16.13;7.95;;;;;;;5.86;89.99;93849.63;6183616;23;19938;-88
2020/12/22 11:57:06;;;;;;;;;;;;;;;5.91;90.28;93853.41;6183866;23;20459;-88